Terminal Aerodrome Forecast
Issued by NWS Buffalo, NY

Home | Current Version | Previous Version | Text Only | Print | Product List | Glossary On
Versions: 1 2 3 4 5 6 7 8 9 10 11 12 13 14 15 16 17 18 19 20 21 22 23 24
000
FTUS41 KBUF 072340
TAFART
TAF
KART 072340Z 0800/0824 20007KT 4SM SHRA VCTS BKN035CB BKN050
     FM080200 23008KT 6SM -SHRA SCT035 OVC050
     FM080500 28009KT P6SM VCSH OVC030
     FM080800 34006KT 5SM -DZ BKN045
     FM081000 36007KT P6SM BKN250
     FM082000 31006KT P6SM FEW050 FEW250=

USA.gov is the U.S. government's official web portal to all federal, state and local government web resources and services.